Terminal Aerodrome Forecast
Issued by NWS Pittsburgh, PA

Current Version | Previous Version | Text Only | Print | Product List | Glossary Off
Versions: 1 2 3 4 5 6 7 8 9 10 11 12 13 14 15 16 17 18 19 20 21 22 23 24 25 26 27 28 29 30 31 32 33 34 35 36 37 38

332
FTUS41 KPBZ 301304 AAA
TAFPIT
TAF AMD
KPIT 301304Z 3013/0118 06006KT P6SM FEW008 SCT023
     FM301600 12007KT P6SM SCT050
     FM302100 12005KT 3SM -RA OVC035
     FM010000 12005KT 2SM -RA BR OVC020
     FM010700 15007KT 4SM -RA OVC007
     FM011200 20006KT P6SM -SHRA OVC012=

USA.gov is the U.S. government's official web portal to all federal, state and local government web resources and services.